sensor_id;sensor_type;location;lat;lon;timestamp;temperature;humidity
16578;DHT22;8401;52.528;13.340;2024-02-14T00:02:11;5.30;99.90
16578;DHT22;8401;52.528;13.340;2024-02-14T00:04:37;5.30;99.90
16578;DHT22;8401;52.528;13.340;2024-02-14T00:07:04;5.20;99.90
16578;DHT22;8401;52.528;13.340;2024-02-14T00:09:29;5.20;99.90
16578;DHT22;8401;52.528;13.340;2024-02-14T00:11:55;5.20;99.90
16578;DHT22;8401;52.528;13.340;2024-02-14T00:14:21;5.30;99.90
16578;DHT22;8401;52.528;13.340;2024-02-14T00:16:46;5.40;99.90
16578;DHT22;8401;52.528;13.340;2024-02-14T00:19:12;5.30;99.90
16578;DHT22;8401;52.528;13.340;2024-02-14T00:21:38;5.20;99.90
16578;DHT22;8401;52.528;13.340;2024-02-14T00:24:04;5.20;99.90
16578;DHT22;8401;52.528;13.340;2024-02-14T00:26:30;5.20;99.90
16578;DHT22;8401;52.528;13.340;2024-02-14T00:28:56;5.20;99.90
16578;DHT22;8401;52.528;13.340;2024-02-14T00:31:22;5.20;99.90
16578;DHT22;8401;52.528;13.340;2024-02-14T00:33:47;5.20;99.90
16578;DHT22;8401;52.528;13.340;2024-02-14T00:36:13;5.20;99.90
16578;DHT22;8401;52.528;13.340;2024-02-14T00:38:38;5.30;99.90
16578;DHT22;8401;52.528;13.340;2024-02-14T00:41:04;5.50;99.90
16578;DHT22;8401;52.528;13.340;2024-02-14T00:43:30;5.60;99.90
16578;DHT22;8401;52.528;13.340;2024-02-14T00:45:55;5.60;99.90
16578;DHT22;8401;52.528;13.340;2024-02-14T00:48:24;5.50;99.90
16578;DHT22;8401;52.528;13.340;2024-02-14T00:50:49;5.60;99.90
16578;DHT22;8401;52.528;13.340;2024-02-14T00:53:17;5.70;99.90
16578;DHT22;8401;52.528;13.340;2024-02-14T00:55:43;5.70;99.90
16578;DHT22;8401;52.528;13.340;2024-02-14T00:58:08;5.50;99.90
16578;DHT22;8401;52.528;13.340;2024-02-14T01:00:34;5.50;99.90
16578;DHT22;8401;52.528;13.340;2024-02-14T01:02:59;5.50;99.90
16578;DHT22;8401;52.528;13.340;2024-02-14T01:05:25;5.50;99.90
16578;DHT22;8401;52.528;13.340;2024-02-14T01:07:51;5.60;99.90
16578;DHT22;8401;52.528;13.340;2024-02-14T01:10:19;5.60;99.90
16578;DHT22;8401;52.528;13.340;2024-02-14T01:12:45;5.60;99.90
16578;DHT22;8401;52.528;13.340;2024-02-14T01:15:10;5.60;99.90
16578;DHT22;8401;52.528;13.340;2024-02-14T01:17:36;5.50;99.90
16578;DHT22;8401;52.528;13.340;2024-02-14T01:20:04;5.50;99.90
16578;DHT22;8401;52.528;13.340;2024-02-14T01:22:31;5.50;99.90
16578;DHT22;8401;52.528;13.340;2024-02-14T01:24:56;5.50;99.90
16578;DHT22;8401;52.528;13.340;2024-02-14T01:27:23;5.40;99.90
16578;DHT22;8401;52.528;13.340;2024-02-14T01:29:49;5.40;99.90
16578;DHT22;8401;52.528;13.340;2024-02-14T01:32:15;5.20;99.90
16578;DHT22;8401;52.528;13.340;2024-02-14T01:34:40;5.30;99.90
16578;DHT22;8401;52.528;13.340;2024-02-14T01:37:08;5.30;99.90
16578;DHT22;8401;52.528;13.340;2024-02-14T01:39:35;5.30;99.90
16578;DHT22;8401;52.528;13.340;2024-02-14T01:42:01;5.40;99.90
16578;DHT22;8401;52.528;13.340;2024-02-14T01:44:26;5.30;99.90
16578;DHT22;8401;52.528;13.340;2024-02-14T01:46:52;5.40;99.90
16578;DHT22;8401;52.528;13.340;2024-02-14T01:49:18;5.50;99.90
16578;DHT22;8401;52.528;13.340;2024-02-14T01:51:45;5.60;99.90
16578;DHT22;8401;52.528;13.340;2024-02-14T01:54:12;5.50;99.90
16578;DHT22;8401;52.528;13.340;2024-02-14T01:56:42;5.50;99.90
16578;DHT22;8401;52.528;13.340;2024-02-14T01:59:09;5.50;99.90
16578;DHT22;8401;52.528;13.340;2024-02-14T02:01:35;5.50;99.90
16578;DHT22;8401;52.528;13.340;2024-02-14T02:04:01;5.40;99.90
16578;DHT22;8401;52.528;13.340;2024-02-14T02:06:27;5.40;99.90
16578;DHT22;8401;52.528;13.340;2024-02-14T02:08:54;5.50;99.90
16578;DHT22;8401;52.528;13.340;2024-02-14T02:11:19;5.60;99.90
16578;DHT22;8401;52.528;13.340;2024-02-14T02:13:45;5.50;99.90
16578;DHT22;8401;52.528;13.340;2024-02-14T02:16:11;5.40;99.90
16578;DHT22;8401;52.528;13.340;2024-02-14T02:18:38;5.30;99.90
16578;DHT22;8401;52.528;13.340;2024-02-14T02:21:03;5.30;99.90
16578;DHT22;8401;52.528;13.340;2024-02-14T02:23:35;5.30;99.90
16578;DHT22;8401;52.528;13.340;2024-02-14T02:26:01;5.20;99.90
16578;DHT22;8401;52.528;13.340;2024-02-14T02:28:27;5.30;99.90
16578;DHT22;8401;52.528;13.340;2024-02-14T02:30:53;5.20;99.90
16578;DHT22;8401;52.528;13.340;2024-02-14T02:33:21;5.30;99.90
16578;DHT22;8401;52.528;13.340;2024-02-14T02:35:48;5.30;99.90
16578;DHT22;8401;52.528;13.340;2024-02-14T02:38:15;5.30;99.90
16578;DHT22;8401;52.528;13.340;2024-02-14T02:40:42;5.20;99.90
16578;DHT22;8401;52.528;13.340;2024-02-14T02:43:07;5.20;99.90
16578;DHT22;8401;52.528;13.340;2024-02-14T02:45:33;5.20;99.90
16578;DHT22;8401;52.528;13.340;2024-02-14T02:47:59;5.20;99.90
16578;DHT22;8401;52.528;13.340;2024-02-14T02:50:26;5.20;99.90
16578;DHT22;8401;52.528;13.340;2024-02-14T02:52:52;5.20;99.90
16578;DHT22;8401;52.528;13.340;2024-02-14T02:55:18;5.10;99.90
16578;DHT22;8401;52.528;13.340;2024-02-14T02:57:43;5.00;99.90
16578;DHT22;8401;52.528;13.340;2024-02-14T03:00:11;5.00;99.90
16578;DHT22;8401;52.528;13.340;2024-02-14T03:02:39;5.00;99.90
16578;DHT22;8401;52.528;13.340;2024-02-14T03:05:10;5.00;99.90
16578;DHT22;8401;52.528;13.340;2024-02-14T03:07:43;4.90;99.90
16578;DHT22;8401;52.528;13.340;2024-02-14T03:10:11;4.90;99.90
16578;DHT22;8401;52.528;13.340;2024-02-14T03:12:39;4.90;99.90
16578;DHT22;8401;52.528;13.340;2024-02-14T03:15:05;5.00;99.90
16578;DHT22;8401;52.528;13.340;2024-02-14T03:17:31;5.00;99.90
16578;DHT22;8401;52.528;13.340;2024-02-14T03:19:57;4.90;99.90
16578;DHT22;8401;52.528;13.340;2024-02-14T03:22:22;4.90;99.90
16578;DHT22;8401;52.528;13.340;2024-02-14T03:24:48;4.90;99.90
16578;DHT22;8401;52.528;13.340;2024-02-14T03:27:14;4.90;99.90
16578;DHT22;8401;52.528;13.340;2024-02-14T03:29:39;4.90;99.90
16578;DHT22;8401;52.528;13.340;2024-02-14T03:32:06;4.90;99.90
16578;DHT22;8401;52.528;13.340;2024-02-14T03:34:33;4.90;99.90
16578;DHT22;8401;52.528;13.340;2024-02-14T03:37:01;4.90;99.90
16578;DHT22;8401;52.528;13.340;2024-02-14T03:39:31;4.90;99.90
16578;DHT22;8401;52.528;13.340;2024-02-14T03:41:56;5.00;99.90
16578;DHT22;8401;52.528;13.340;2024-02-14T03:44:22;4.90;99.90
16578;DHT22;8401;52.528;13.340;2024-02-14T03:46:49;5.00;99.90
16578;DHT22;8401;52.528;13.340;2024-02-14T03:49:15;4.90;99.90
16578;DHT22;8401;52.528;13.340;2024-02-14T03:51:41;5.00;99.90
16578;DHT22;8401;52.528;13.340;2024-02-14T03:54:06;4.90;99.90
16578;DHT22;8401;52.528;13.340;2024-02-14T03:56:32;5.00;99.90
16578;DHT22;8401;52.528;13.340;2024-02-14T03:59:01;5.00;99.90
16578;DHT22;8401;52.528;13.340;2024-02-14T04:01:28;5.00;99.90
16578;DHT22;8401;52.528;13.340;2024-02-14T04:03:54;5.00;99.90
16578;DHT22;8401;52.528;13.340;2024-02-14T04:06:20;5.00;99.90
16578;DHT22;8401;52.528;13.340;2024-02-14T04:08:45;4.90;99.90
16578;DHT22;8401;52.528;13.340;2024-02-14T04:11:11;4.90;99.90
16578;DHT22;8401;52.528;13.340;2024-02-14T04:13:39;4.90;99.90
16578;DHT22;8401;52.528;13.340;2024-02-14T04:16:04;4.80;99.90
16578;DHT22;8401;52.528;13.340;2024-02-14T04:18:30;4.90;99.90
16578;DHT22;8401;52.528;13.340;2024-02-14T04:20:55;4.80;99.90
16578;DHT22;8401;52.528;13.340;2024-02-14T04:23:21;4.90;99.90
16578;DHT22;8401;52.528;13.340;2024-02-14T04:25:47;5.00;99.90
16578;DHT22;8401;52.528;13.340;2024-02-14T04:28:13;5.00;99.90
16578;DHT22;8401;52.528;13.340;2024-02-14T04:30:39;5.00;99.90
16578;DHT22;8401;52.528;13.340;2024-02-14T04:33:07;5.00;99.90
16578;DHT22;8401;52.528;13.340;2024-02-14T04:35:33;5.00;99.90
16578;DHT22;8401;52.528;13.340;2024-02-14T04:37:59;5.00;99.90
16578;DHT22;8401;52.528;13.340;2024-02-14T04:40:24;5.00;99.90
16578;DHT22;8401;52.528;13.340;2024-02-14T04:42:50;5.00;99.90
16578;DHT22;8401;52.528;13.340;2024-02-14T04:45:16;5.00;99.90
16578;DHT22;8401;52.528;13.340;2024-02-14T04:47:41;5.00;99.90
16578;DHT22;8401;52.528;13.340;2024-02-14T04:50:08;5.10;99.90
16578;DHT22;8401;52.528;13.340;2024-02-14T04:52:33;5.10;99.90
16578;DHT22;8401;52.528;13.340;2024-02-14T04:54:59;5.10;99.90
16578;DHT22;8401;52.528;13.340;2024-02-14T04:57:25;5.10;99.90
16578;DHT22;8401;52.528;13.340;2024-02-14T04:59:50;5.10;99.90
16578;DHT22;8401;52.528;13.340;2024-02-14T05:02:17;5.10;99.90
16578;DHT22;8401;52.528;13.340;2024-02-14T05:04:42;5.10;99.90
16578;DHT22;8401;52.528;13.340;2024-02-14T05:07:08;5.20;99.90
16578;DHT22;8401;52.528;13.340;2024-02-14T05:09:34;5.20;99.90
16578;DHT22;8401;52.528;13.340;2024-02-14T05:11:59;5.10;99.90
16578;DHT22;8401;52.528;13.340;2024-02-14T05:14:26;5.10;99.90
16578;DHT22;8401;52.528;13.340;2024-02-14T05:16:51;5.20;99.90
16578;DHT22;8401;52.528;13.340;2024-02-14T05:19:17;5.20;99.90
16578;DHT22;8401;52.528;13.340;2024-02-14T05:21:43;5.20;99.90
16578;DHT22;8401;52.528;13.340;2024-02-14T05:24:08;5.30;99.90
16578;DHT22;8401;52.528;13.340;2024-02-14T05:26:34;5.30;99.90
16578;DHT22;8401;52.528;13.340;2024-02-14T05:29:01;5.30;99.90
16578;DHT22;8401;52.528;13.340;2024-02-14T05:31:45;5.30;99.90
16578;DHT22;8401;52.528;13.340;2024-02-14T05:34:11;5.30;99.90
16578;DHT22;8401;52.528;13.340;2024-02-14T05:36:37;5.30;99.90
16578;DHT22;8401;52.528;13.340;2024-02-14T05:39:04;5.30;99.90
16578;DHT22;8401;52.528;13.340;2024-02-14T05:41:31;5.40;99.90
16578;DHT22;8401;52.528;13.340;2024-02-14T05:43:58;5.40;99.90
16578;DHT22;8401;52.528;13.340;2024-02-14T05:46:24;5.40;99.90
16578;DHT22;8401;52.528;13.340;2024-02-14T05:48:49;5.30;99.90
16578;DHT22;8401;52.528;13.340;2024-02-14T05:51:17;5.30;99.90
16578;DHT22;8401;52.528;13.340;2024-02-14T05:53:43;5.30;99.90
16578;DHT22;8401;52.528;13.340;2024-02-14T05:56:09;5.30;99.90
16578;DHT22;8401;52.528;13.340;2024-02-14T05:58:34;5.30;99.90
16578;DHT22;8401;52.528;13.340;2024-02-14T06:01:01;5.30;99.90
16578;DHT22;8401;52.528;13.340;2024-02-14T06:03:26;5.30;99.90
16578;DHT22;8401;52.528;13.340;2024-02-14T06:05:53;5.30;99.90
16578;DHT22;8401;52.528;13.340;2024-02-14T06:08:18;5.30;99.90
16578;DHT22;8401;52.528;13.340;2024-02-14T06:10:44;5.20;99.90
16578;DHT22;8401;52.528;13.340;2024-02-14T06:13:10;5.20;99.90
16578;DHT22;8401;52.528;13.340;2024-02-14T06:15:35;5.10;99.90
16578;DHT22;8401;52.528;13.340;2024-02-14T06:18:01;5.10;99.90
16578;DHT22;8401;52.528;13.340;2024-02-14T06:20:27;5.10;99.90
16578;DHT22;8401;52.528;13.340;2024-02-14T06:22:52;5.10;99.90
16578;DHT22;8401;52.528;13.340;2024-02-14T06:25:18;5.10;99.90
16578;DHT22;8401;52.528;13.340;2024-02-14T06:27:43;5.20;99.90
16578;DHT22;8401;52.528;13.340;2024-02-14T06:30:09;5.20;99.90
16578;DHT22;8401;52.528;13.340;2024-02-14T06:32:35;5.10;99.90
16578;DHT22;8401;52.528;13.340;2024-02-14T06:35:02;5.10;99.90
16578;DHT22;8401;52.528;13.340;2024-02-14T06:37:27;5.10;99.90
16578;DHT22;8401;52.528;13.340;2024-02-14T06:39:53;5.20;99.90
16578;DHT22;8401;52.528;13.340;2024-02-14T06:42:19;5.20;99.90
16578;DHT22;8401;52.528;13.340;2024-02-14T06:44:45;5.20;99.90
16578;DHT22;8401;52.528;13.340;2024-02-14T06:47:11;5.20;99.90
16578;DHT22;8401;52.528;13.340;2024-02-14T06:49:36;5.20;99.90
16578;DHT22;8401;52.528;13.340;2024-02-14T06:52:03;5.20;99.90
16578;DHT22;8401;52.528;13.340;2024-02-14T06:54:29;5.30;99.90
16578;DHT22;8401;52.528;13.340;2024-02-14T06:56:54;5.30;99.90
16578;DHT22;8401;52.528;13.340;2024-02-14T06:59:20;5.20;99.90
16578;DHT22;8401;52.528;13.340;2024-02-14T07:01:46;5.20;99.90
16578;DHT22;8401;52.528;13.340;2024-02-14T07:04:11;5.20;99.90
16578;DHT22;8401;52.528;13.340;2024-02-14T07:06:37;5.30;99.90
16578;DHT22;8401;52.528;13.340;2024-02-14T07:09:03;5.30;99.90
16578;DHT22;8401;52.528;13.340;2024-02-14T07:11:28;5.40;99.90
16578;DHT22;8401;52.528;13.340;2024-02-14T07:13:54;5.40;99.90
16578;DHT22;8401;52.528;13.340;2024-02-14T07:16:19;5.50;99.90
16578;DHT22;8401;52.528;13.340;2024-02-14T07:18:45;5.50;99.90
16578;DHT22;8401;52.528;13.340;2024-02-14T07:21:11;5.50;99.90
16578;DHT22;8401;52.528;13.340;2024-02-14T07:23:36;5.60;99.90
16578;DHT22;8401;52.528;13.340;2024-02-14T07:26:02;5.60;99.90
16578;DHT22;8401;52.528;13.340;2024-02-14T07:28:27;5.70;99.90
16578;DHT22;8401;52.528;13.340;2024-02-14T07:31:00;5.80;99.90
16578;DHT22;8401;52.528;13.340;2024-02-14T07:33:26;5.90;99.90
16578;DHT22;8401;52.528;13.340;2024-02-14T07:35:51;6.00;99.90
16578;DHT22;8401;52.528;13.340;2024-02-14T07:38:17;6.00;99.90
16578;DHT22;8401;52.528;13.340;2024-02-14T07:40:43;6.00;99.90
16578;DHT22;8401;52.528;13.340;2024-02-14T07:43:08;6.00;99.90
16578;DHT22;8401;52.528;13.340;2024-02-14T07:45:34;6.10;99.90
16578;DHT22;8401;52.528;13.340;2024-02-14T07:48:00;6.10;99.90
16578;DHT22;8401;52.528;13.340;2024-02-14T07:50:25;6.20;99.90
16578;DHT22;8401;52.528;13.340;2024-02-14T07:52:53;6.20;99.90
16578;DHT22;8401;52.528;13.340;2024-02-14T07:55:18;6.30;99.90
16578;DHT22;8401;52.528;13.340;2024-02-14T07:57:44;6.30;99.90
16578;DHT22;8401;52.528;13.340;2024-02-14T08:00:10;6.30;99.90
16578;DHT22;8401;52.528;13.340;2024-02-14T08:02:37;6.40;99.90
16578;DHT22;8401;52.528;13.340;2024-02-14T08:05:03;6.40;99.90
16578;DHT22;8401;52.528;13.340;2024-02-14T08:07:31;6.40;99.90
16578;DHT22;8401;52.528;13.340;2024-02-14T08:09:57;6.40;99.90
16578;DHT22;8401;52.528;13.340;2024-02-14T08:12:23;6.50;99.90
16578;DHT22;8401;52.528;13.340;2024-02-14T08:14:50;6.60;99.90
16578;DHT22;8401;52.528;13.340;2024-02-14T08:17:15;6.70;99.90
16578;DHT22;8401;52.528;13.340;2024-02-14T08:19:41;6.80;99.90
16578;DHT22;8401;52.528;13.340;2024-02-14T08:22:07;6.70;99.90
16578;DHT22;8401;52.528;13.340;2024-02-14T08:24:33;6.60;99.90
16578;DHT22;8401;52.528;13.340;2024-02-14T08:26:59;6.70;99.90
16578;DHT22;8401;52.528;13.340;2024-02-14T08:29:24;6.70;99.90
16578;DHT22;8401;52.528;13.340;2024-02-14T08:31:50;6.70;99.90
16578;DHT22;8401;52.528;13.340;2024-02-14T08:34:16;6.80;99.90
16578;DHT22;8401;52.528;13.340;2024-02-14T08:36:43;6.80;99.90
16578;DHT22;8401;52.528;13.340;2024-02-14T08:39:09;6.90;99.90
16578;DHT22;8401;52.528;13.340;2024-02-14T08:41:38;7.00;99.90
16578;DHT22;8401;52.528;13.340;2024-02-14T08:44:04;7.00;99.90
16578;DHT22;8401;52.528;13.340;2024-02-14T08:46:30;7.10;99.90
16578;DHT22;8401;52.528;13.340;2024-02-14T08:48:56;7.10;99.90
16578;DHT22;8401;52.528;13.340;2024-02-14T08:51:22;7.10;99.90
16578;DHT22;8401;52.528;13.340;2024-02-14T08:53:49;7.20;99.90
16578;DHT22;8401;52.528;13.340;2024-02-14T08:56:18;7.10;99.90
16578;DHT22;8401;52.528;13.340;2024-02-14T08:58:44;7.20;99.90
16578;DHT22;8401;52.528;13.340;2024-02-14T09:01:10;7.30;99.90
16578;DHT22;8401;52.528;13.340;2024-02-14T09:03:36;7.30;99.90
16578;DHT22;8401;52.528;13.340;2024-02-14T09:06:02;7.30;99.90
16578;DHT22;8401;52.528;13.340;2024-02-14T09:08:29;7.20;99.90
16578;DHT22;8401;52.528;13.340;2024-02-14T09:10:56;7.20;99.90
16578;DHT22;8401;52.528;13.340;2024-02-14T09:13:22;7.20;99.90
16578;DHT22;8401;52.528;13.340;2024-02-14T09:15:48;7.20;99.90
16578;DHT22;8401;52.528;13.340;2024-02-14T09:18:15;7.20;99.90
16578;DHT22;8401;52.528;13.340;2024-02-14T09:20:44;7.20;99.90
16578;DHT22;8401;52.528;13.340;2024-02-14T09:23:12;7.30;99.90
16578;DHT22;8401;52.528;13.340;2024-02-14T09:25:39;7.30;99.90
16578;DHT22;8401;52.528;13.340;2024-02-14T09:28:05;7.30;99.90
16578;DHT22;8401;52.528;13.340;2024-02-14T09:30:31;7.30;99.90
16578;DHT22;8401;52.528;13.340;2024-02-14T09:32:58;7.20;99.90
16578;DHT22;8401;52.528;13.340;2024-02-14T09:35:23;7.10;99.90
16578;DHT22;8401;52.528;13.340;2024-02-14T09:37:50;7.10;99.90
16578;DHT22;8401;52.528;13.340;2024-02-14T09:40:15;6.90;99.90
16578;DHT22;8401;52.528;13.340;2024-02-14T09:42:54;7.00;99.90
16578;DHT22;8401;52.528;13.340;2024-02-14T09:45:27;7.20;99.90
16578;DHT22;8401;52.528;13.340;2024-02-14T09:47:53;7.20;99.90
16578;DHT22;8401;52.528;13.340;2024-02-14T09:50:20;7.50;99.90
16578;DHT22;8401;52.528;13.340;2024-02-14T09:52:49;7.50;99.90
16578;DHT22;8401;52.528;13.340;2024-02-14T09:55:15;7.30;99.90
16578;DHT22;8401;52.528;13.340;2024-02-14T09:57:43;7.30;99.90
16578;DHT22;8401;52.528;13.340;2024-02-14T10:00:12;7.20;99.90
16578;DHT22;8401;52.528;13.340;2024-02-14T10:02:40;7.10;99.90
16578;DHT22;8401;52.528;13.340;2024-02-14T10:05:07;7.20;99.90
16578;DHT22;8401;52.528;13.340;2024-02-14T10:07:42;7.10;99.90
16578;DHT22;8401;52.528;13.340;2024-02-14T10:10:09;7.00;99.90
16578;DHT22;8401;52.528;13.340;2024-02-14T10:12:35;7.00;99.90
16578;DHT22;8401;52.528;13.340;2024-02-14T10:15:01;7.00;99.90
16578;DHT22;8401;52.528;13.340;2024-02-14T10:17:27;7.10;99.90
16578;DHT22;8401;52.528;13.340;2024-02-14T10:20:00;7.10;99.90
16578;DHT22;8401;52.528;13.340;2024-02-14T10:22:37;7.20;99.90
16578;DHT22;8401;52.528;13.340;2024-02-14T10:25:04;7.10;99.90
16578;DHT22;8401;52.528;13.340;2024-02-14T10:27:32;7.10;99.90
16578;DHT22;8401;52.528;13.340;2024-02-14T10:29:59;7.00;99.90
16578;DHT22;8401;52.528;13.340;2024-02-14T10:32:25;7.00;99.90
16578;DHT22;8401;52.528;13.340;2024-02-14T10:34:51;7.10;99.90
16578;DHT22;8401;52.528;13.340;2024-02-14T10:37:17;7.00;99.90
16578;DHT22;8401;52.528;13.340;2024-02-14T10:39:45;7.00;99.90
16578;DHT22;8401;52.528;13.340;2024-02-14T10:42:12;7.10;99.90
16578;DHT22;8401;52.528;13.340;2024-02-14T10:44:39;7.20;99.90
16578;DHT22;8401;52.528;13.340;2024-02-14T10:47:06;7.20;99.90
16578;DHT22;8401;52.528;13.340;2024-02-14T10:49:35;7.30;99.90
16578;DHT22;8401;52.528;13.340;2024-02-14T10:52:05;7.30;99.90
16578;DHT22;8401;52.528;13.340;2024-02-14T10:54:35;7.40;99.90
16578;DHT22;8401;52.528;13.340;2024-02-14T10:57:05;7.50;99.90
16578;DHT22;8401;52.528;13.340;2024-02-14T10:59:33;7.60;99.90
16578;DHT22;8401;52.528;13.340;2024-02-14T11:02:00;7.70;99.90
16578;DHT22;8401;52.528;13.340;2024-02-14T11:04:25;7.70;99.90
16578;DHT22;8401;52.528;13.340;2024-02-14T11:06:54;7.70;99.90
16578;DHT22;8401;52.528;13.340;2024-02-14T11:09:22;7.80;99.90
16578;DHT22;8401;52.528;13.340;2024-02-14T11:12:00;8.10;99.90
16578;DHT22;8401;52.528;13.340;2024-02-14T11:14:31;8.10;99.90
16578;DHT22;8401;52.528;13.340;2024-02-14T11:16:57;8.00;99.90
16578;DHT22;8401;52.528;13.340;2024-02-14T11:19:31;8.10;99.90
16578;DHT22;8401;52.528;13.340;2024-02-14T11:22:10;8.00;99.90
16578;DHT22;8401;52.528;13.340;2024-02-14T11:24:37;7.80;99.90
16578;DHT22;8401;52.528;13.340;2024-02-14T11:27:03;7.90;99.90
16578;DHT22;8401;52.528;13.340;2024-02-14T11:29:31;7.90;99.90
16578;DHT22;8401;52.528;13.340;2024-02-14T11:32:01;8.00;99.90
16578;DHT22;8401;52.528;13.340;2024-02-14T11:34:28;8.00;99.90
16578;DHT22;8401;52.528;13.340;2024-02-14T11:36:53;8.00;99.90
16578;DHT22;8401;52.528;13.340;2024-02-14T11:39:20;8.00;99.90
16578;DHT22;8401;52.528;13.340;2024-02-14T11:41:46;8.00;99.90
16578;DHT22;8401;52.528;13.340;2024-02-14T11:44:12;8.00;99.90
16578;DHT22;8401;52.528;13.340;2024-02-14T11:46:38;8.00;99.90
16578;DHT22;8401;52.528;13.340;2024-02-14T11:49:05;8.00;99.90
16578;DHT22;8401;52.528;13.340;2024-02-14T11:51:34;8.10;99.90
16578;DHT22;8401;52.528;13.340;2024-02-14T11:54:04;8.10;99.90
16578;DHT22;8401;52.528;13.340;2024-02-14T11:56:32;8.10;99.90
16578;DHT22;8401;52.528;13.340;2024-02-14T11:59:02;8.20;99.90
16578;DHT22;8401;52.528;13.340;2024-02-14T12:01:33;8.10;99.90
16578;DHT22;8401;52.528;13.340;2024-02-14T12:04:00;8.10;99.90
16578;DHT22;8401;52.528;13.340;2024-02-14T12:06:44;8.20;99.90
16578;DHT22;8401;52.528;13.340;2024-02-14T12:09:11;8.10;99.90
16578;DHT22;8401;52.528;13.340;2024-02-14T12:11:40;8.30;99.90
16578;DHT22;8401;52.528;13.340;2024-02-14T12:14:09;8.30;99.90
16578;DHT22;8401;52.528;13.340;2024-02-14T12:16:36;8.30;99.90
16578;DHT22;8401;52.528;13.340;2024-02-14T12:19:15;8.20;99.90
16578;DHT22;8401;52.528;13.340;2024-02-14T12:21:42;8.10;99.90
16578;DHT22;8401;52.528;13.340;2024-02-14T12:24:11;8.20;99.90
16578;DHT22;8401;52.528;13.340;2024-02-14T12:26:40;8.20;99.90
16578;DHT22;8401;52.528;13.340;2024-02-14T12:29:07;8.10;99.90
16578;DHT22;8401;52.528;13.340;2024-02-14T12:31:33;8.30;99.90
16578;DHT22;8401;52.528;13.340;2024-02-14T12:34:00;8.50;99.90
16578;DHT22;8401;52.528;13.340;2024-02-14T12:36:31;8.50;99.90
16578;DHT22;8401;52.528;13.340;2024-02-14T12:38:58;8.30;99.90
16578;DHT22;8401;52.528;13.340;2024-02-14T12:41:24;8.30;99.90
16578;DHT22;8401;52.528;13.340;2024-02-14T12:43:52;8.40;99.90
16578;DHT22;8401;52.528;13.340;2024-02-14T12:46:18;8.50;99.90
16578;DHT22;8401;52.528;13.340;2024-02-14T12:48:43;8.40;99.90
16578;DHT22;8401;52.528;13.340;2024-02-14T12:51:10;8.50;99.90
16578;DHT22;8401;52.528;13.340;2024-02-14T12:53:35;8.60;99.90
16578;DHT22;8401;52.528;13.340;2024-02-14T12:56:01;8.60;99.90
16578;DHT22;8401;52.528;13.340;2024-02-14T12:58:27;8.70;99.90
16578;DHT22;8401;52.528;13.340;2024-02-14T13:00:53;8.60;99.90
16578;DHT22;8401;52.528;13.340;2024-02-14T13:03:19;8.70;99.90
16578;DHT22;8401;52.528;13.340;2024-02-14T13:05:45;8.60;99.90
16578;DHT22;8401;52.528;13.340;2024-02-14T13:08:12;8.70;99.90
16578;DHT22;8401;52.528;13.340;2024-02-14T13:10:38;8.70;99.90
16578;DHT22;8401;52.528;13.340;2024-02-14T13:13:04;8.80;99.90
16578;DHT22;8401;52.528;13.340;2024-02-14T13:15:30;8.80;99.90
16578;DHT22;8401;52.528;13.340;2024-02-14T13:17:56;8.80;99.90
16578;DHT22;8401;52.528;13.340;2024-02-14T13:20:24;8.80;99.90
16578;DHT22;8401;52.528;13.340;2024-02-14T13:22:49;8.90;99.90
16578;DHT22;8401;52.528;13.340;2024-02-14T13:25:15;8.70;99.90
16578;DHT22;8401;52.528;13.340;2024-02-14T13:27:41;8.80;99.90
16578;DHT22;8401;52.528;13.340;2024-02-14T13:30:08;8.70;99.90
16578;DHT22;8401;52.528;13.340;2024-02-14T13:32:34;8.90;99.90
16578;DHT22;8401;52.528;13.340;2024-02-14T13:34:59;8.80;99.90
16578;DHT22;8401;52.528;13.340;2024-02-14T13:37:25;8.70;99.90
16578;DHT22;8401;52.528;13.340;2024-02-14T13:39:51;8.70;99.90
16578;DHT22;8401;52.528;13.340;2024-02-14T13:42:17;8.70;99.90
16578;DHT22;8401;52.528;13.340;2024-02-14T13:44:42;8.70;99.90
16578;DHT22;8401;52.528;13.340;2024-02-14T13:47:08;8.60;99.90
16578;DHT22;8401;52.528;13.340;2024-02-14T13:49:34;8.60;99.90
16578;DHT22;8401;52.528;13.340;2024-02-14T13:51:59;8.60;99.90
16578;DHT22;8401;52.528;13.340;2024-02-14T13:54:25;8.60;99.90
16578;DHT22;8401;52.528;13.340;2024-02-14T13:56:51;8.80;99.90
16578;DHT22;8401;52.528;13.340;2024-02-14T13:59:17;8.80;99.90
16578;DHT22;8401;52.528;13.340;2024-02-14T14:01:45;8.80;99.90
16578;DHT22;8401;52.528;13.340;2024-02-14T14:04:11;8.80;99.90
16578;DHT22;8401;52.528;13.340;2024-02-14T14:06:38;8.80;99.90
16578;DHT22;8401;52.528;13.340;2024-02-14T14:09:04;8.80;99.90
16578;DHT22;8401;52.528;13.340;2024-02-14T14:11:33;8.80;99.90
16578;DHT22;8401;52.528;13.340;2024-02-14T14:13:58;8.80;99.90
16578;DHT22;8401;52.528;13.340;2024-02-14T14:16:25;8.80;99.90
16578;DHT22;8401;52.528;13.340;2024-02-14T14:18:51;8.90;99.90
16578;DHT22;8401;52.528;13.340;2024-02-14T14:21:17;8.80;99.90
16578;DHT22;8401;52.528;13.340;2024-02-14T14:23:43;8.90;99.90
16578;DHT22;8401;52.528;13.340;2024-02-14T14:26:09;9.00;99.90
16578;DHT22;8401;52.528;13.340;2024-02-14T14:28:36;8.90;99.90
16578;DHT22;8401;52.528;13.340;2024-02-14T14:31:01;9.00;99.90
16578;DHT22;8401;52.528;13.340;2024-02-14T14:33:27;9.00;99.90
16578;DHT22;8401;52.528;13.340;2024-02-14T14:35:53;9.10;99.90
16578;DHT22;8401;52.528;13.340;2024-02-14T14:38:20;9.10;99.90
16578;DHT22;8401;52.528;13.340;2024-02-14T14:40:46;9.10;99.90
16578;DHT22;8401;52.528;13.340;2024-02-14T14:43:13;9.10;99.90
16578;DHT22;8401;52.528;13.340;2024-02-14T14:45:38;9.20;99.90
16578;DHT22;8401;52.528;13.340;2024-02-14T14:48:07;9.20;99.90
16578;DHT22;8401;52.528;13.340;2024-02-14T14:50:37;9.20;99.90
16578;DHT22;8401;52.528;13.340;2024-02-14T14:53:06;9.30;99.90
16578;DHT22;8401;52.528;13.340;2024-02-14T14:55:54;9.20;99.90
16578;DHT22;8401;52.528;13.340;2024-02-14T14:58:25;9.30;99.90
16578;DHT22;8401;52.528;13.340;2024-02-14T15:00:58;9.40;99.90
16578;DHT22;8401;52.528;13.340;2024-02-14T15:03:25;9.50;99.90
16578;DHT22;8401;52.528;13.340;2024-02-14T15:05:51;9.50;99.90
16578;DHT22;8401;52.528;13.340;2024-02-14T15:08:18;9.40;99.90
16578;DHT22;8401;52.528;13.340;2024-02-14T15:10:48;9.40;99.90
16578;DHT22;8401;52.528;13.340;2024-02-14T15:13:17;9.50;99.90
16578;DHT22;8401;52.528;13.340;2024-02-14T15:15:43;9.60;99.90
16578;DHT22;8401;52.528;13.340;2024-02-14T15:18:09;9.50;99.90
16578;DHT22;8401;52.528;13.340;2024-02-14T15:20:34;9.50;99.90
16578;DHT22;8401;52.528;13.340;2024-02-14T15:23:02;9.50;99.90
16578;DHT22;8401;52.528;13.340;2024-02-14T15:25:28;9.50;99.90
16578;DHT22;8401;52.528;13.340;2024-02-14T15:27:54;9.60;99.90
16578;DHT22;8401;52.528;13.340;2024-02-14T15:30:23;9.60;99.90
16578;DHT22;8401;52.528;13.340;2024-02-14T15:33:08;9.60;99.90
16578;DHT22;8401;52.528;13.340;2024-02-14T15:35:50;9.50;99.90
16578;DHT22;8401;52.528;13.340;2024-02-14T15:38:17;9.60;99.90
16578;DHT22;8401;52.528;13.340;2024-02-14T15:40:45;9.60;99.90
16578;DHT22;8401;52.528;13.340;2024-02-14T15:43:11;9.60;99.90